Time;durP1;ratioP1;P1;durP2;ratioP2;P2;SDS_P1;SDS_P2;PMS_P1;PMS_P2;Temp;Humidity;BMP_temperature;BMP_pressure;BME280_temperature;BME280_humidity;BME280_pressure;Samples;Min_cycle;Max_cycle;Signal;HPM_P1;HPM_P2
2021/11/09 00:00:30;;;;;;;20.42;8.57;;;9.60;99.90;;;;;;5073504;28;20123;-77
2021/11/09 00:02:58;;;;;;;18.40;9.27;;;9.70;99.90;;;;;;5061328;28;20075;-77
2021/11/09 00:05:30;;;;;;;18.02;9.18;;;9.60;99.90;;;;;;5090561;28;20036;-77
2021/11/09 00:08:00;;;;;;;17.45;8.82;;;9.50;99.90;;;;;;5049288;28;20036;-77
2021/11/09 00:10:30;;;;;;;21.00;8.55;;;9.40;99.90;;;;;;5086931;28;20046;-77
2021/11/09 00:13:01;;;;;;;15.02;8.30;;;9.50;99.90;;;;;;5062432;28;20036;-77
2021/11/09 00:15:31;;;;;;;18.55;8.38;;;9.40;99.90;;;;;;5069641;28;20040;-77
2021/11/09 00:18:00;;;;;;;15.63;8.10;;;9.50;99.90;;;;;;5072210;28;20032;-77
2021/11/09 00:20:32;;;;;;;14.68;7.57;;;9.50;99.90;;;;;;5062891;28;20068;-77
2021/11/09 00:23:03;;;;;;;17.88;8.30;;;9.40;99.90;;;;;;5083183;28;20052;-77
2021/11/09 00:25:29;;;;;;;20.08;8.13;;;9.70;99.90;;;;;;5092626;28;20050;-80
2021/11/09 00:27:58;;;;;;;19.77;7.97;;;9.90;99.90;;;;;;5049299;28;20131;-78
2021/11/09 00:30:25;;;;;;;19.10;7.53;;;9.30;99.90;;;;;;5048672;28;20385;-77
2021/11/09 00:32:52;;;;;;;13.88;7.40;;;9.30;99.90;;;;;;5060092;28;20052;-76
2021/11/09 00:35:21;;;;;;;16.15;7.28;;;9.60;99.90;;;;;;5092665;28;20062;-77
2021/11/09 00:37:48;;;;;;;18.85;7.10;;;9.40;99.90;;;;;;5055081;28;20391;-75
2021/11/09 00:40:17;;;;;;;16.38;7.00;;;9.30;99.90;;;;;;5054654;28;20032;-76
2021/11/09 00:42:43;;;;;;;13.05;6.63;;;9.40;99.90;;;;;;5055072;28;20048;-76
2021/11/09 00:45:13;;;;;;;20.52;7.28;;;9.20;99.90;;;;;;5074449;28;20040;-76
2021/11/09 00:47:40;;;;;;;18.48;6.95;;;9.30;99.90;;;;;;5055879;28;20093;-76
2021/11/09 00:50:12;;;;;;;21.73;6.93;;;9.30;99.90;;;;;;5069722;28;20503;-77
2021/11/09 00:52:40;;;;;;;18.83;7.30;;;9.20;99.90;;;;;;5060846;28;20082;-80
2021/11/09 00:55:07;;;;;;;18.90;6.50;;;9.20;99.90;;;;;;5055518;28;20040;-80
2021/11/09 00:57:33;;;;;;;17.25;6.22;;;9.20;99.90;;;;;;5052654;28;20040;-78
2021/11/09 00:59:59;;;;;;;16.40;5.93;;;9.20;99.90;;;;;;5058506;28;20041;-78
2021/11/09 01:02:27;;;;;;;23.45;6.57;;;9.20;99.90;;;;;;5065635;28;20033;-79
2021/11/09 01:04:55;;;;;;;18.15;6.63;;;9.10;99.90;;;;;;5067482;28;20484;-78
2021/11/09 01:07:21;;;;;;;15.43;6.43;;;9.10;99.90;;;;;;5073134;28;20043;-78
2021/11/09 01:09:47;;;;;;;17.40;6.70;;;9.10;99.90;;;;;;5049303;28;20457;-79
2021/11/09 01:12:17;;;;;;;24.20;7.22;;;9.10;99.90;;;;;;5046522;28;20185;-78
2021/11/09 01:14:44;;;;;;;15.63;7.22;;;9.10;99.90;;;;;;5059793;28;20040;-78
2021/11/09 01:17:10;;;;;;;21.42;7.30;;;9.10;99.90;;;;;;5064735;28;20446;-79
2021/11/09 01:19:38;;;;;;;16.50;6.40;;;9.30;99.90;;;;;;5056889;28;20033;-77
2021/11/09 01:22:05;;;;;;;18.98;6.32;;;9.20;99.90;;;;;;5045091;28;20110;-79
2021/11/09 01:24:31;;;;;;;20.05;7.20;;;9.00;99.90;;;;;;5058926;28;20136;-78
2021/11/09 01:26:56;;;;;;;18.63;7.20;;;9.20;99.90;;;;;;5043867;28;20060;-79
2021/11/09 01:29:23;;;;;;;21.80;7.45;;;9.00;99.90;;;;;;5056109;28;20501;-79
2021/11/09 01:31:52;;;;;;;26.02;7.50;;;9.40;99.90;;;;;;5046937;28;20036;-79
2021/11/09 01:34:18;;;;;;;20.50;7.47;;;9.10;99.90;;;;;;5051135;28;20048;-79
2021/11/09 01:36:50;;;;;;;21.77;7.25;;;9.00;99.90;;;;;;5042828;28;20043;-79
2021/11/09 01:39:16;;;;;;;22.77;8.38;;;8.90;99.90;;;;;;5069270;28;20032;-79
2021/11/09 01:41:43;;;;;;;16.90;7.32;;;9.00;99.90;;;;;;5069328;28;20072;-79
2021/11/09 01:44:09;;;;;;;17.50;8.00;;;8.90;99.90;;;;;;5031782;28;20300;-78
2021/11/09 01:46:35;;;;;;;25.35;7.95;;;8.90;99.90;;;;;;5043095;28;20059;-79
2021/11/09 01:49:02;;;;;;;15.57;6.82;;;8.90;99.90;;;;;;5052383;28;20040;-76
2021/11/09 01:51:29;;;;;;;18.35;8.13;;;8.90;99.90;;;;;;5056937;28;20051;-76
2021/11/09 01:53:56;;;;;;;22.95;7.40;;;8.90;99.90;;;;;;5047442;28;20051;-76
2021/11/09 01:56:26;;;;;;;24.00;7.40;;;9.50;99.90;;;;;;5057218;28;20040;-76
2021/11/09 01:58:52;;;;;;;26.10;7.38;;;9.20;99.90;;;;;;5057376;28;20044;-76
2021/11/09 02:01:19;;;;;;;22.80;7.60;;;8.80;99.90;;;;;;5082789;28;20043;-76
2021/11/09 02:03:54;;;;;;;18.10;7.68;;;8.80;99.90;;;;;;5073533;28;20431;-76
2021/11/09 02:06:22;;;;;;;20.58;7.57;;;8.80;99.90;;;;;;5064424;28;20034;-75
2021/11/09 02:08:48;;;;;;;20.38;7.90;;;8.80;99.90;;;;;;5059863;28;20070;-76
2021/11/09 02:11:14;;;;;;;24.27;7.60;;;8.70;99.90;;;;;;5066657;28;20089;-76
2021/11/09 02:13:42;;;;;;;26.60;8.13;;;8.70;99.90;;;;;;5058174;28;20123;-76
2021/11/09 02:16:09;;;;;;;23.05;7.63;;;8.70;99.90;;;;;;5064773;28;20070;-76
2021/11/09 02:18:35;;;;;;;21.45;8.13;;;8.70;99.90;;;;;;5066758;28;20098;-76
2021/11/09 02:21:11;;;;;;;18.27;7.68;;;8.70;99.90;;;;;;5035747;28;20419;-76
2021/11/09 02:23:43;;;;;;;17.63;7.60;;;8.70;99.90;;;;;;5064480;28;20050;-76
2021/11/09 02:26:14;;;;;;;21.55;7.70;;;8.70;99.90;;;;;;5049821;28;20476;-76
2021/11/09 02:28:41;;;;;;;25.40;8.27;;;8.70;99.90;;;;;;5046093;28;20048;-76
2021/11/09 02:31:07;;;;;;;20.20;8.50;;;8.60;99.90;;;;;;5059239;28;20507;-76
2021/11/09 02:33:36;;;;;;;21.40;8.05;;;8.60;99.90;;;;;;5055394;28;20037;-76
2021/11/09 02:36:05;;;;;;;25.67;7.80;;;8.60;99.90;;;;;;5061290;28;20052;-79
2021/11/09 02:38:31;;;;;;;20.17;7.80;;;8.40;99.90;;;;;;5059312;28;20055;-78
2021/11/09 02:40:58;;;;;;;19.75;7.93;;;9.10;99.90;;;;;;5045436;28;20130;-78
2021/11/09 02:43:25;;;;;;;30.45;9.02;;;8.70;99.90;;;;;;5087195;28;20041;-80
2021/11/09 02:48:46;;;;;;;22.08;8.13;;;8.50;99.90;;;;;;5057438;28;20048;-79
2021/11/09 02:51:17;;;;;;;24.05;7.80;;;8.50;99.90;;;;;;5056065;28;20054;-79
2021/11/09 02:54:27;;;;;;;23.63;7.78;;;8.50;99.90;;;;;;5035077;28;20055;-79
2021/11/09 03:02:28;;;;;;;22.70;8.43;;;8.40;99.90;;;;;;5041507;28;20089;-79
2021/11/09 03:05:10;;;;;;;25.85;8.70;;;8.40;99.90;;;;;;5056903;28;20035;-79
2021/11/09 03:10:17;;;;;;;22.15;8.82;;;8.40;99.90;;;;;;5056053;28;20143;-79
2021/11/09 03:12:43;;;;;;;24.77;8.68;;;8.40;99.90;;;;;;5065360;28;20043;-79
2021/11/09 03:15:12;;;;;;;28.27;9.13;;;8.40;99.90;;;;;;5058069;28;20044;-76
2021/11/09 03:17:54;;;;;;;28.58;9.35;;;8.40;99.90;;;;;;5048566;28;20044;-79
2021/11/09 03:20:35;;;;;;;27.77;8.48;;;8.30;99.90;;;;;;5041550;28;20129;-79
2021/11/09 03:45:14;;;;;;;35.05;8.43;;;8.20;99.90;;;;;;5053147;28;20133;-79
2021/11/09 03:47:44;;;;;;;32.22;8.68;;;8.10;99.90;;;;;;5051990;28;20044;-79
2021/11/09 03:50:10;;;;;;;26.42;7.45;;;8.10;99.90;;;;;;5038936;28;20072;-79
2021/11/09 03:52:51;;;;;;;28.35;8.20;;;8.10;99.90;;;;;;5047905;28;20040;-79
2021/11/09 03:55:36;;;;;;;26.35;7.50;;;8.30;99.90;;;;;;5055015;28;20044;-79
2021/11/09 03:58:12;;;;;;;24.70;7.38;;;8.10;99.90;;;;;;5038727;28;20036;-79
2021/11/09 04:06:13;;;;;;;28.00;8.00;;;8.60;99.90;;;;;;5063507;28;20097;-79
2021/11/09 04:08:45;;;;;;;27.33;8.10;;;8.00;99.90;;;;;;5044947;28;20044;-78
2021/11/09 04:24:21;;;;;;;24.50;7.70;;;8.00;99.90;;;;;;5068330;28;20044;-78
2021/11/09 04:49:07;;;;;;;23.90;6.78;;;7.80;99.90;;;;;;5061287;28;20046;-78
2021/11/09 05:02:45;;;;;;;25.75;7.60;;;8.00;99.90;;;;;;5073871;28;20098;-78
2021/11/09 05:10:36;;;;;;;26.33;7.43;;;7.70;99.90;;;;;;5077325;28;20037;-77
2021/11/09 05:13:02;;;;;;;32.97;7.65;;;7.90;99.90;;;;;;5044182;28;20124;-77
2021/11/09 05:15:28;;;;;;;30.50;7.47;;;7.70;99.90;;;;;;5074766;28;20040;-75
2021/11/09 05:17:54;;;;;;;26.30;8.18;;;7.70;99.90;;;;;;5066593;28;20119;-76
2021/11/09 05:20:20;;;;;;;29.15;7.63;;;8.10;99.90;;;;;;5041646;28;20119;-76
2021/11/09 05:22:46;;;;;;;25.30;6.90;;;7.70;99.90;;;;;;5059723;28;20510;-75
2021/11/09 05:25:12;;;;;;;28.88;8.02;;;7.80;99.90;;;;;;5048732;28;20048;-76
2021/11/09 05:27:38;;;;;;;30.33;7.63;;;7.70;99.90;;;;;;5029752;28;20044;-76
2021/11/09 05:30:05;;;;;;;26.08;7.32;;;7.70;99.90;;;;;;5049484;28;20498;-76
2021/11/09 05:32:31;;;;;;;23.83;7.13;;;7.70;99.90;;;;;;5049476;28;20039;-76
2021/11/09 05:34:57;;;;;;;28.83;8.52;;;7.70;99.90;;;;;;5049250;28;20131;-76
2021/11/09 05:37:28;;;;;;;31.63;8.65;;;7.70;99.90;;;;;;5054478;28;20559;-76
2021/11/09 05:39:56;;;;;;;30.85;9.13;;;7.80;99.90;;;;;;5040840;28;20123;-75
2021/11/09 05:42:22;;;;;;;37.63;10.25;;;7.60;99.90;;;;;;5075491;28;20392;-78
2021/11/09 05:44:51;;;;;;;32.33;11.20;;;7.80;99.90;;;;;;5052297;28;20110;-79
2021/11/09 05:47:17;;;;;;;49.85;12.07;;;7.60;99.90;;;;;;5066177;28;20079;-79
2021/11/09 05:49:43;;;;;;;50.05;12.73;;;7.60;99.90;;;;;;5044781;28;20036;-79
2021/11/09 05:52:10;;;;;;;47.90;12.93;;;7.60;99.90;;;;;;5054018;28;20096;-79
2021/11/09 05:54:36;;;;;;;45.95;14.55;;;7.60;99.90;;;;;;5062450;28;20492;-79
2021/11/09 05:57:02;;;;;;;52.75;13.40;;;7.70;99.90;;;;;;5060355;28;20065;-79
2021/11/09 05:59:28;;;;;;;46.75;11.98;;;7.60;99.90;;;;;;5077341;28;20101;-79
2021/11/09 06:01:54;;;;;;;52.00;12.57;;;7.60;99.90;;;;;;5032511;28;20604;-79
2021/11/09 06:04:20;;;;;;;38.83;11.57;;;7.60;99.90;;;;;;5056885;28;20041;-79
2021/11/09 06:06:46;;;;;;;44.78;11.82;;;7.60;99.90;;;;;;5060350;28;20484;-79
2021/11/09 06:09:12;;;;;;;40.40;11.75;;;7.60;99.90;;;;;;5057558;28;20128;-79
2021/11/09 06:11:37;;;;;;;38.28;11.80;;;7.60;99.90;;;;;;5059769;28;20036;-79
2021/11/09 06:14:03;;;;;;;38.33;10.93;;;7.60;99.90;;;;;;5040039;28;20051;-79
2021/11/09 06:16:29;;;;;;;46.58;11.55;;;7.60;99.90;;;;;;5053884;28;20412;-79
2021/11/09 06:18:56;;;;;;;31.80;10.75;;;7.70;99.90;;;;;;5055308;28;20037;-77
2021/11/09 06:21:22;;;;;;;37.28;11.32;;;8.50;99.90;;;;;;5062726;28;20041;-76
2021/11/09 06:23:50;;;;;;;39.08;11.43;;;7.60;99.90;;;;;;5056445;28;20386;-77
2021/11/09 06:26:19;;;;;;;38.03;11.10;;;7.50;99.90;;;;;;5074149;28;20048;-77
2021/11/09 06:28:45;;;;;;;32.83;10.32;;;7.50;99.90;;;;;;5081961;28;20040;-77
2021/11/09 06:31:10;;;;;;;34.88;11.13;;;7.50;99.90;;;;;;5050921;28;20049;-77
2021/11/09 06:33:36;;;;;;;37.50;10.68;;;7.50;99.90;;;;;;5049219;28;20128;-77
2021/11/09 06:36:03;;;;;;;39.03;11.80;;;8.00;99.90;;;;;;5060685;28;20055;-77
2021/11/09 06:38:29;;;;;;;41.78;10.10;;;7.50;99.90;;;;;;5068132;28;20035;-77
2021/11/09 06:40:55;;;;;;;46.28;12.40;;;7.50;99.90;;;;;;5070578;28;20040;-77
2021/11/09 06:43:20;;;;;;;36.30;11.18;;;7.50;99.90;;;;;;5039832;28;20085;-76
2021/11/09 06:45:46;;;;;;;39.08;11.35;;;7.80;99.90;;;;;;5080058;28;20119;-76
2021/11/09 06:48:13;;;;;;;41.30;12.63;;;7.50;99.90;;;;;;5039835;28;20032;-76
2021/11/09 06:50:39;;;;;;;35.80;12.20;;;7.50;99.90;;;;;;5065331;28;20047;-77
2021/11/09 06:53:05;;;;;;;45.10;12.88;;;7.90;99.90;;;;;;5046330;28;20059;-77
2021/11/09 06:55:34;;;;;;;43.95;13.52;;;7.80;99.90;;;;;;5048154;28;20055;-76
2021/11/09 06:58:00;;;;;;;46.90;13.88;;;7.50;99.90;;;;;;5055767;28;20045;-78
2021/11/09 07:00:28;;;;;;;43.13;14.15;;;7.50;99.90;;;;;;5063607;28;20032;-78
2021/11/09 07:02:54;;;;;;;41.45;12.93;;;7.50;99.90;;;;;;5028914;28;20043;-78
2021/11/09 07:05:21;;;;;;;48.97;13.85;;;7.50;99.90;;;;;;5068258;28;20048;-74
2021/11/09 07:07:48;;;;;;;42.40;13.32;;;7.50;99.90;;;;;;5039495;28;20052;-75
2021/11/09 07:10:14;;;;;;;45.72;13.02;;;7.80;99.90;;;;;;5059062;28;20126;-71
2021/11/09 07:12:41;;;;;;;45.45;13.35;;;8.20;99.90;;;;;;5074753;28;20041;-71
2021/11/09 07:15:07;;;;;;;42.00;12.38;;;7.50;99.90;;;;;;5057796;28;20045;-72
2021/11/09 07:17:34;;;;;;;40.80;12.15;;;7.50;99.90;;;;;;5080710;28;20117;-83
2021/11/09 07:20:00;;;;;;;41.70;13.30;;;7.50;99.90;;;;;;5051093;28;20068;-83
2021/11/09 07:22:28;;;;;;;47.85;13.27;;;7.50;99.90;;;;;;5056104;28;20053;-83
2021/11/09 07:24:56;;;;;;;34.80;10.85;;;7.50;99.90;;;;;;5073287;28;20052;-83
2021/11/09 07:27:25;;;;;;;35.20;10.57;;;7.50;99.90;;;;;;5056542;28;20044;-82
2021/11/09 07:29:52;;;;;;;38.40;11.40;;;7.50;99.90;;;;;;5065607;28;20078;-82
2021/11/09 07:32:20;;;;;;;32.53;10.77;;;7.50;99.90;;;;;;5045370;28;20050;-83
2021/11/09 07:34:46;;;;;;;33.00;9.77;;;7.50;99.90;;;;;;5047477;28;20044;-83
2021/11/09 07:37:13;;;;;;;33.35;10.52;;;7.50;99.90;;;;;;5061846;28;20123;-82
2021/11/09 07:39:44;;;;;;;31.55;10.52;;;7.50;99.90;;;;;;5059123;28;20505;-83
2021/11/09 07:42:15;;;;;;;31.77;10.35;;;7.60;99.90;;;;;;5063520;28;20086;-84
2021/11/09 07:44:48;;;;;;;31.17;9.77;;;8.40;99.90;;;;;;5061665;28;20039;-82
2021/11/09 07:47:14;;;;;;;36.10;10.63;;;7.50;99.90;;;;;;5040493;28;20040;-82
2021/11/09 07:49:41;;;;;;;30.23;10.55;;;7.60;99.90;;;;;;5038426;28;20391;-82
2021/11/09 07:52:11;;;;;;;39.05;10.00;;;7.60;99.90;;;;;;5047779;28;20086;-82
2021/11/09 07:54:46;;;;;;;34.22;9.93;;;7.60;99.90;;;;;;5044014;28;20205;-75
2021/11/09 07:57:14;;;;;;;40.03;10.68;;;7.60;99.90;;;;;;5029739;28;20036;-74
2021/11/09 08:02:23;;;;;;;30.55;10.13;;;7.30;99.90;;;;;;5056295;28;20174;-74
2021/11/09 08:04:56;;;;;;;33.83;10.32;;;8.00;99.90;;;;;;5066383;28;20040;-74
2021/11/09 08:07:27;;;;;;;33.08;9.55;;;7.70;99.90;;;;;;5054962;28;20040;-74
2021/11/09 08:09:53;;;;;;;30.83;9.93;;;7.70;99.90;;;;;;5063892;28;20036;-75
2021/11/09 08:12:19;;;;;;;34.83;9.27;;;7.70;99.90;;;;;;5051427;28;20036;-74
2021/11/09 08:14:44;;;;;;;31.02;10.02;;;7.70;99.90;;;;;;5062192;28;20134;-74
2021/11/09 08:17:10;;;;;;;35.35;10.75;;;7.80;99.90;;;;;;5067345;28;20040;-74
2021/11/09 08:19:36;;;;;;;31.17;10.13;;;7.80;99.90;;;;;;5058607;28;20024;-74
2021/11/09 08:22:03;;;;;;;31.05;10.80;;;8.00;99.90;;;;;;5084303;28;20063;-74
2021/11/09 08:24:30;;;;;;;27.65;10.38;;;7.80;99.90;;;;;;5039049;28;20066;-74
2021/11/09 08:26:57;;;;;;;31.13;10.95;;;8.40;99.90;;;;;;5059823;28;20049;-74
2021/11/09 08:29:27;;;;;;;33.00;10.93;;;7.80;99.90;;;;;;5069505;28;20110;-74
2021/11/09 08:31:58;;;;;;;30.80;9.93;;;8.10;99.90;;;;;;5068283;28;20048;-74
2021/11/09 08:34:28;;;;;;;38.03;13.02;;;8.00;99.90;;;;;;5071177;28;20041;-74
2021/11/09 08:36:56;;;;;;;38.40;10.63;;;8.00;99.90;;;;;;5057501;28;20119;-74
2021/11/09 08:39:38;;;;;;;32.03;10.57;;;8.10;99.90;;;;;;5083681;28;20115;-74
2021/11/09 08:42:29;;;;;;;32.30;11.10;;;8.10;99.90;;;;;;5047128;28;20043;-74
2021/11/09 08:47:29;;;;;;;34.42;10.80;;;8.10;99.90;;;;;;5070511;28;20056;-74
2021/11/09 08:49:55;;;;;;;35.72;10.55;;;8.20;99.90;;;;;;5082848;28;20036;-74
2021/11/09 08:52:24;;;;;;;37.17;11.30;;;8.20;99.90;;;;;;5074678;28;20050;-74
2021/11/09 09:05:49;;;;;;;33.25;10.73;;;8.40;99.90;;;;;;5071951;28;20404;-77
2021/11/09 09:08:14;;;;;;;31.98;10.95;;;8.40;99.90;;;;;;5042875;28;20045;-77
2021/11/09 09:10:40;;;;;;;37.55;11.88;;;8.50;99.90;;;;;;5054060;28;20044;-77
2021/11/09 09:13:06;;;;;;;36.83;11.77;;;8.70;99.90;;;;;;5041545;28;20051;-77
2021/11/09 09:15:32;;;;;;;36.47;11.52;;;8.60;99.90;;;;;;5058244;28;20040;-77
2021/11/09 09:17:59;;;;;;;26.52;10.50;;;8.70;99.90;;;;;;5083615;28;20040;-77
2021/11/09 09:20:29;;;;;;;34.80;10.25;;;9.00;99.90;;;;;;5092971;28;20493;-74
2021/11/09 09:26:06;;;;;;;32.95;11.60;;;8.80;99.90;;;;;;5062312;28;20048;-75
2021/11/09 09:56:04;;;;;;;32.38;10.45;;;9.00;99.90;;;;;;5056985;28;20044;-88
2021/11/09 09:59:10;;;;;;;;;;;;;;;;;;;;;
2021/11/09 10:02:13;;;;;;;;;;;;;;;;;;;;;
2021/11/09 10:04:48;;;;;;;40.00;10.18;;;9.30;99.90;;;;;;5067945;28;20056;-87
2021/11/09 10:08:11;;;;;;;37.92;10.55;;;9.40;99.90;;;;;;5055617;28;20182;-87
2021/11/09 10:10:53;;;;;;;;;;;;;;;;;;;;;
2021/11/09 10:13:28;;;;;;;34.28;9.98;;;9.60;99.90;;;;;;5034251;28;20127;-85
2021/11/09 10:16:44;;;;;;;;;;;;;;;;;;;;;
2021/11/09 10:19:33;;;;;;;33.25;10.05;;;9.70;99.90;;;;;;5041632;28;20055;-87
2021/11/09 10:22:57;;;;;;;28.70;8.98;;;9.70;99.90;;;;;;5065252;28;20116;-85
2021/11/09 10:25:49;;;;;;;38.85;9.27;;;9.20;99.90;;;;;;5058920;28;20415;-88
2021/11/09 10:28:43;;;;;;;39.00;10.00;;;9.70;99.90;;;;;;5046826;28;20396;-87
2021/11/09 10:31:33;;;;;;;31.30;9.60;;;9.90;99.90;;;;;;4959369;28;20058;-87
2021/11/09 10:34:27;;;;;;;34.40;9.20;;;9.90;99.90;;;;;;5073323;28;20041;-87
2021/11/09 10:37:24;;;;;;;27.95;8.43;;;10.00;99.90;;;;;;5043190;28;20093;-87
2021/11/09 10:39:57;;;;;;;28.75;9.15;;;10.00;99.90;;;;;;5039372;28;20045;-87
2021/11/09 10:42:30;;;;;;;32.40;9.02;;;10.00;99.90;;;;;;5061423;28;20029;-87
2021/11/09 10:45:33;;;;;;;36.45;8.82;;;10.20;99.90;;;;;;5066863;28;20514;-86
2021/11/09 10:48:31;;;;;;;29.50;8.82;;;10.10;99.90;;;;;;5042750;28;20048;-88
2021/11/09 10:51:02;;;;;;;27.10;8.43;;;10.10;99.90;;;;;;5039380;28;20079;-87
2021/11/09 10:53:50;;;;;;;27.92;9.27;;;10.10;99.90;;;;;;5055145;28;20045;-86
2021/11/09 10:56:50;;;;;;;28.33;9.25;;;10.20;99.90;;;;;;5054377;28;20036;-73
2021/11/09 11:04:39;;;;;;;28.35;8.10;;;10.20;99.90;;;;;;5075874;28;20498;-81
2021/11/09 11:07:08;;;;;;;21.45;8.48;;;10.20;99.90;;;;;;5060619;28;20048;-81
2021/11/09 11:09:41;;;;;;;26.55;9.50;;;10.30;99.90;;;;;;5075847;28;20431;-83
2021/11/09 11:12:09;;;;;;;30.50;8.73;;;10.20;99.90;;;;;;5090351;28;20044;-82
2021/11/09 11:14:45;;;;;;;26.02;8.52;;;10.30;99.90;;;;;;5046208;28;20055;-83
2021/11/09 11:17:16;;;;;;;;;;;10.30;99.90;;;;;;5069636;28;20044;-83
2021/11/09 11:19:47;;;;;;;24.65;8.38;;;10.30;99.90;;;;;;5047425;28;19916;-81
2021/11/09 11:22:28;;;;;;;26.98;9.27;;;10.30;99.90;;;;;;5046387;28;20040;-80
2021/11/09 11:24:55;;;;;;;31.67;8.73;;;10.40;99.90;;;;;;5064563;28;20052;-81
2021/11/09 11:27:27;;;;;;;28.75;8.95;;;10.40;99.90;;;;;;5056861;28;20109;-82
2021/11/09 11:29:57;;;;;;;32.60;9.40;;;10.40;99.90;;;;;;5027446;28;20040;-82
2021/11/09 11:32:24;;;;;;;32.63;9.55;;;10.60;99.90;;;;;;5054706;28;20048;-82
2021/11/09 11:34:51;;;;;;;28.00;9.38;;;10.50;99.90;;;;;;5058627;28;20491;-81
2021/11/09 11:37:21;;;;;;;32.08;10.00;;;10.90;99.90;;;;;;5058030;28;20110;-82
2021/11/09 11:40:02;;;;;;;31.25;10.25;;;10.50;99.90;;;;;;5055663;28;20029;-82
2021/11/09 11:42:38;;;;;;;25.13;8.43;;;10.50;99.90;;;;;;5064796;28;20037;-75
2021/11/09 11:45:04;;;;;;;25.67;8.65;;;10.50;99.90;;;;;;5038355;28;20098;-76
2021/11/09 11:47:30;;;;;;;35.15;10.13;;;10.60;99.90;;;;;;5059523;28;20388;-76
2021/11/09 11:50:09;;;;;;;27.67;8.55;;;10.50;99.90;;;;;;5041927;28;20032;-76
2021/11/09 11:52:44;;;;;;;29.30;9.27;;;10.60;99.90;;;;;;5061650;28;20068;-75
2021/11/09 11:55:24;;;;;;;42.80;10.48;;;10.60;99.90;;;;;;5037753;28;20036;-75
2021/11/09 11:58:10;;;;;;;32.03;9.27;;;10.60;99.90;;;;;;5054926;28;20045;-75
2021/11/09 12:00:51;;;;;;;;;;;10.60;99.90;;;;;;5063989;28;20036;-76
2021/11/09 12:03:24;;;;;;;31.30;9.75;;;10.60;99.90;;;;;;5064769;28;19956;-83
2021/11/09 12:06:13;;;;;;;35.80;10.35;;;10.60;99.90;;;;;;5047151;28;20089;-82
2021/11/09 12:09:00;;;;;;;33.92;10.30;;;10.60;99.90;;;;;;5042960;28;20036;-87
2021/11/09 12:11:39;;;;;;;30.17;10.77;;;10.60;99.90;;;;;;5060226;28;20131;-87
2021/11/09 12:14:29;;;;;;;36.25;10.85;;;10.60;99.90;;;;;;5045092;28;20035;-86
2021/11/09 12:16:58;;;;;;;27.10;9.98;;;10.70;99.90;;;;;;5043725;28;20044;-84
2021/11/09 12:19:38;;;;;;;28.60;9.90;;;10.70;99.90;;;;;;5057021;28;20089;-84
2021/11/09 12:22:11;;;;;;;34.30;10.02;;;10.70;99.90;;;;;;5054342;28;20041;-84
2021/11/09 12:24:50;;;;;;;34.70;10.10;;;10.70;99.90;;;;;;5078673;28;20055;-84
2021/11/09 12:27:16;;;;;;;32.63;11.05;;;10.70;99.90;;;;;;5057462;28;20051;-77
2021/11/09 12:29:54;;;;;;;28.77;9.75;;;11.40;99.90;;;;;;5080289;28;20496;-85
2021/11/09 12:32:35;;;;;;;34.60;9.80;;;10.70;99.90;;;;;;5043960;28;20105;-85
2021/11/09 12:35:19;;;;;;;32.22;10.43;;;10.80;99.90;;;;;;5037142;28;20036;-85
2021/11/09 12:38:08;;;;;;;32.30;10.88;;;10.70;99.90;;;;;;5067436;28;20491;-77
2021/11/09 12:40:46;;;;;;;35.42;10.38;;;10.70;99.90;;;;;;5041884;28;20036;-79
2021/11/09 12:43:49;;;;;;;32.85;10.07;;;10.90;99.90;;;;;;5087528;28;20090;-75
2021/11/09 12:46:22;;;;;;;43.33;11.13;;;10.70;99.90;;;;;;5086879;28;20048;-80
2021/11/09 12:48:59;;;;;;;31.95;10.43;;;10.70;99.90;;;;;;5049506;28;20036;-80
2021/11/09 12:51:29;;;;;;;40.63;10.55;;;10.70;99.90;;;;;;5054315;28;20048;-80
2021/11/09 12:54:03;;;;;;;31.35;10.50;;;10.70;99.90;;;;;;5054234;28;20044;-80
2021/11/09 12:56:37;;;;;;;34.78;10.52;;;10.70;99.90;;;;;;5071019;28;20028;-80
2021/11/09 12:59:41;;;;;;;31.30;10.50;;;10.70;99.90;;;;;;5051138;28;20051;-78
2021/11/09 13:02:26;;;;;;;36.05;10.45;;;10.70;99.90;;;;;;5054157;28;20566;-78
2021/11/09 13:05:09;;;;;;;32.07;10.00;;;10.80;99.90;;;;;;5056377;28;20048;-78
2021/11/09 13:07:40;;;;;;;36.20;10.52;;;10.70;99.90;;;;;;5074151;28;20044;-78
2021/11/09 13:10:16;;;;;;;45.55;11.13;;;10.70;99.90;;;;;;5041320;28;20102;-78
2021/11/09 13:12:43;;;;;;;37.47;11.50;;;10.70;99.90;;;;;;5063630;28;20125;-78
2021/11/09 13:15:13;;;;;;;32.05;11.13;;;10.70;99.90;;;;;;5043766;28;20036;-78
2021/11/09 13:17:50;;;;;;;36.13;11.02;;;10.70;99.90;;;;;;5065379;28;20041;-78
2021/11/09 13:23:00;;;;;;;28.10;10.18;;;10.70;99.90;;;;;;5053792;28;20071;-78
2021/11/09 13:25:40;;;;;;;32.15;10.55;;;10.70;99.90;;;;;;5067004;28;20055;-78
2021/11/09 13:28:19;;;;;;;39.15;11.32;;;10.80;99.90;;;;;;5044593;28;20257;-78
2021/11/09 13:31:02;;;;;;;30.83;10.95;;;10.70;99.90;;;;;;5069124;28;20040;-77
2021/11/09 13:33:35;;;;;;;36.00;12.40;;;10.70;99.90;;;;;;5054194;28;20067;-77
2021/11/09 13:36:05;;;;;;;36.70;10.45;;;10.90;99.90;;;;;;5077702;28;20186;-77
2021/11/09 13:38:40;;;;;;;33.92;10.35;;;10.90;99.90;;;;;;5050878;28;20107;-77
2021/11/09 13:41:20;;;;;;;32.55;11.63;;;10.80;99.90;;;;;;5056810;28;20054;-77
2021/11/09 13:43:54;;;;;;;36.58;10.90;;;10.80;99.90;;;;;;5045911;28;20043;-77
2021/11/09 13:46:32;;;;;;;34.78;10.57;;;10.80;99.90;;;;;;5057156;28;20067;-78
2021/11/09 13:49:04;;;;;;;32.42;11.25;;;10.80;99.90;;;;;;5057661;28;20488;-78
2021/11/09 13:51:49;;;;;;;30.33;11.15;;;10.90;99.90;;;;;;5061010;28;20506;-78
2021/11/09 13:54:23;;;;;;;33.00;11.32;;;10.80;99.90;;;;;;5082652;28;20051;-77
2021/11/09 13:56:53;;;;;;;41.83;11.75;;;10.80;99.90;;;;;;5056941;28;20060;-78
2021/11/09 13:59:38;;;;;;;32.00;9.93;;;10.80;99.90;;;;;;5058785;28;20040;-78
2021/11/09 14:13:16;;;;;;;33.63;11.00;;;10.80;99.90;;;;;;5056868;28;20032;-75
2021/11/09 14:18:33;;;;;;;32.20;9.45;;;10.80;99.90;;;;;;5062773;28;20044;-82
2021/11/09 14:21:02;;;;;;;33.78;10.18;;;10.90;99.90;;;;;;5083303;28;20459;-82
2021/11/09 14:23:37;;;;;;;25.52;10.10;;;10.90;99.90;;;;;;5064665;28;20059;-81
2021/11/09 14:26:27;;;;;;;32.78;9.57;;;10.90;99.90;;;;;;5057662;28;20418;-82
2021/11/09 14:28:59;;;;;;;36.38;8.95;;;10.90;99.90;;;;;;5046160;28;20495;-81
2021/11/09 14:31:45;;;;;;;29.25;8.88;;;10.90;99.90;;;;;;5048842;28;20037;-81
2021/11/09 14:34:19;;;;;;;31.23;8.35;;;10.90;99.90;;;;;;5039349;28;20498;-82
2021/11/09 14:36:49;;;;;;;30.60;8.65;;;10.90;99.90;;;;;;5048523;28;20079;-81
2021/11/09 14:39:24;;;;;;;32.75;9.38;;;10.90;99.90;;;;;;5050649;28;20025;-82
2021/11/09 14:42:34;;;;;;;30.53;8.87;;;10.90;99.90;;;;;;5051929;28;20032;-81
2021/11/09 14:45:10;;;;;;;31.52;8.55;;;10.90;99.90;;;;;;5056021;28;20049;-82
2021/11/09 14:47:41;;;;;;;35.67;9.05;;;10.90;99.90;;;;;;5039497;28;20047;-81
2021/11/09 14:50:14;;;;;;;28.90;8.85;;;10.90;99.90;;;;;;5039602;28;20040;-81
2021/11/09 14:52:46;;;;;;;29.42;8.70;;;10.90;99.90;;;;;;5054016;28;20553;-81
2021/11/09 14:55:41;;;;;;;33.47;9.15;;;10.90;99.90;;;;;;5070550;28;20045;-82
2021/11/09 14:58:04;;;;;;;30.25;8.75;;;10.90;99.90;;;;;;5070339;28;20052;-81
2021/11/09 15:00:39;;;;;;;24.48;8.23;;;10.90;99.90;;;;;;5042936;28;20617;-80
2021/11/09 15:03:05;;;;;;;27.88;8.55;;;10.90;99.90;;;;;;5093865;28;20044;-81
2021/11/09 15:05:34;;;;;;;34.35;8.63;;;11.40;99.90;;;;;;5074745;28;20117;-74
2021/11/09 15:08:13;;;;;;;29.92;8.50;;;10.90;99.90;;;;;;5051670;28;20457;-74
2021/11/09 15:29:37;;;;;;;31.17;9.07;;;10.90;99.90;;;;;;5072456;28;20056;-74
2021/11/09 15:32:15;;;;;;;34.78;9.80;;;10.80;99.90;;;;;;5073714;28;20040;-74
2021/11/09 15:34:52;;;;;;;28.63;8.85;;;10.80;99.90;;;;;;5053010;28;20102;-74
2021/11/09 15:39:50;;;;;;;27.15;8.23;;;10.80;99.90;;;;;;5087085;28;20040;-76
2021/11/09 15:42:17;;;;;;;30.05;8.77;;;10.80;99.90;;;;;;5057856;28;20048;-76
2021/11/09 15:44:44;;;;;;;28.23;8.52;;;10.90;99.90;;;;;;5056306;28;20076;-74
2021/11/09 15:47:10;;;;;;;31.33;9.52;;;10.80;99.90;;;;;;5083077;28;20083;-74
2021/11/09 15:49:37;;;;;;;34.28;8.80;;;11.00;99.90;;;;;;5046516;28;20177;-74
2021/11/09 15:52:03;;;;;;;32.35;9.55;;;11.30;99.90;;;;;;5080921;28;20557;-74
2021/11/09 15:54:28;;;;;;;36.67;10.50;;;10.80;99.90;;;;;;5074276;28;20042;-73
2021/11/09 15:56:54;;;;;;;34.47;9.55;;;10.70;99.90;;;;;;5080218;28;20036;-73
2021/11/09 15:59:20;;;;;;;31.55;8.77;;;10.80;99.90;;;;;;5086991;28;20123;-76
2021/11/09 16:01:46;;;;;;;34.55;10.25;;;10.80;99.90;;;;;;5073794;28;20031;-76
2021/11/09 16:04:13;;;;;;;31.67;9.73;;;10.80;99.90;;;;;;5073465;28;20039;-76
2021/11/09 16:06:42;;;;;;;29.92;9.32;;;10.80;99.90;;;;;;5065470;28;20059;-77
2021/11/09 16:09:10;;;;;;;27.38;8.77;;;10.80;99.90;;;;;;5058193;28;20596;-75